Time;durP1;ratioP1;P1;durP2;ratioP2;P2;SDS_P1;SDS_P2;PMS_P1;PMS_P2;Temp;Humidity;BMP_temperature;BMP_pressure;BME280_temperature;BME280_humidity;BME280_pressure;Samples;Min_cycle;Max_cycle;Signal;HPM_P1;HPM_P2
2022/08/04 00:04:55;;;;;;;2.58;1.13;;;30.50;54.90;;;;;;10399924;28;20067;-46
2022/08/04 00:10:01;;;;;;;3.40;1.23;;;30.50;55.00;;;;;;10388302;28;20048;-49
2022/08/04 00:15:05;;;;;;;4.43;1.33;;;30.40;54.90;;;;;;10398884;28;20065;-49
2022/08/04 00:20:10;;;;;;;3.17;1.60;;;30.40;55.00;;;;;;10388666;28;20084;-46
2022/08/04 00:25:13;;;;;;;2.88;1.30;;;30.40;55.00;;;;;;10395607;28;20553;-51
2022/08/04 00:30:15;;;;;;;3.08;1.02;;;30.30;54.90;;;;;;10385390;28;20309;-51
2022/08/04 00:35:17;;;;;;;3.13;1.40;;;30.30;54.90;;;;;;10394622;28;20474;-47
2022/08/04 00:40:35;;;;;;;6.38;1.50;;;30.30;55.00;;;;;;10399918;28;20071;-50
2022/08/04 00:46:04;;;;;;;4.53;1.40;;;30.20;54.90;;;;;;10403745;28;20136;-49
2022/08/04 00:51:20;;;;;;;4.22;1.27;;;30.20;54.90;;;;;;10396531;28;20430;-50
2022/08/04 00:56:46;;;;;;;3.22;1.30;;;30.20;54.90;;;;;;10396390;28;20037;-51
2022/08/04 01:02:00;;;;;;;3.25;1.25;;;30.20;55.00;;;;;;10397036;28;20049;-47
2022/08/04 01:07:31;;;;;;;3.20;1.45;;;30.30;55.00;;;;;;10406649;28;20050;-48
2022/08/04 01:13:04;;;;;;;7.20;2.42;;;30.20;55.10;;;;;;10401657;28;20041;-49
2022/08/04 01:18:08;;;;;;;1.80;1.25;;;30.20;55.10;;;;;;10381551;28;20064;-47
2022/08/04 01:23:35;;;;;;;3.40;1.35;;;30.20;55.10;;;;;;10378285;28;20142;-49
2022/08/04 01:29:01;;;;;;;2.95;1.10;;;30.10;55.20;;;;;;10398297;28;20042;-48
2022/08/04 01:34:06;;;;;;;2.60;1.17;;;30.10;55.20;;;;;;10400902;28;20048;-46
2022/08/04 01:44:28;;;;;;;2.17;0.90;;;30.10;55.20;;;;;;10410727;28;20477;-48
2022/08/04 01:49:31;;;;;;;2.30;1.00;;;30.00;55.20;;;;;;10403326;28;20049;-49
2022/08/04 01:54:41;;;;;;;2.67;0.90;;;30.00;55.30;;;;;;10404740;28;20076;-52
2022/08/04 01:59:49;;;;;;;3.75;1.30;;;30.00;55.30;;;;;;10410718;28;20076;-48
2022/08/04 02:04:51;;;;;;;1.48;0.88;;;30.00;55.20;;;;;;10408175;28;20048;-47
2022/08/04 02:10:04;;;;;;;1.77;0.90;;;29.90;55.30;;;;;;10404745;28;20045;-49
2022/08/04 02:15:13;;;;;;;2.08;0.80;;;29.90;55.40;;;;;;10406413;28;20041;-49
2022/08/04 02:20:22;;;;;;;1.50;1.00;;;29.90;55.30;;;;;;10399905;28;20050;-51
2022/08/04 02:25:27;;;;;;;2.60;0.80;;;29.90;55.40;;;;;;10406037;28;20041;-52
2022/08/04 02:30:38;;;;;;;1.92;1.00;;;29.80;55.30;;;;;;10397413;28;20284;-51
2022/08/04 02:35:43;;;;;;;2.47;1.03;;;29.80;55.40;;;;;;10404613;28;20109;-50
2022/08/04 02:40:46;;;;;;;2.78;1.55;;;29.80;55.40;;;;;;10384636;28;20075;-50
2022/08/04 02:45:55;;;;;;;2.30;1.00;;;29.70;55.30;;;;;;10390214;28;20332;-49
2022/08/04 02:50:59;;;;;;;2.38;1.20;;;29.70;55.40;;;;;;10401675;28;20051;-54
2022/08/04 02:56:03;;;;;;;0.93;0.73;;;29.70;55.40;;;;;;10409461;28;20129;-50
2022/08/04 03:01:06;;;;;;;2.65;0.80;;;29.60;55.40;;;;;;10398752;28;20056;-48
2022/08/04 03:06:36;;;;;;;1.83;0.65;;;29.60;55.30;;;;;;10384378;28;20080;-49
2022/08/04 03:12:38;;;;;;;2.67;0.80;;;29.60;55.40;;;;;;10384466;28;20051;-49
2022/08/04 03:18:06;;;;;;;1.48;0.90;;;29.60;55.50;;;;;;10323529;28;20046;-50
2022/08/04 03:23:29;;;;;;;0.98;0.70;;;29.50;55.40;;;;;;10387912;28;20069;-52
2022/08/04 03:29:06;;;;;;;1.98;0.93;;;29.50;55.90;;;;;;10385096;28;20127;-52
2022/08/04 03:34:39;;;;;;;1.90;1.00;;;29.50;55.30;;;;;;10389787;28;20128;-51
2022/08/04 03:40:17;;;;;;;1.63;0.70;;;29.40;55.30;;;;;;10399691;28;20068;-51
2022/08/04 03:45:54;;;;;;;6.22;0.90;;;29.40;55.30;;;;;;10389488;28;20077;-49
2022/08/04 03:57:02;;;;;;;1.17;0.70;;;29.30;55.30;;;;;;10405257;28;20179;-50
2022/08/04 04:02:44;;;;;;;1.58;0.80;;;29.30;55.40;;;;;;10395393;28;20045;-52
2022/08/04 04:08:12;;;;;;;2.42;0.80;;;29.30;55.50;;;;;;10401803;28;20069;-52
2022/08/04 04:13:50;;;;;;;2.25;0.60;;;29.30;55.30;;;;;;10403240;28;20094;-51
2022/08/04 04:19:18;;;;;;;2.50;0.90;;;29.20;55.50;;;;;;10405999;28;20049;-48
2022/08/04 04:24:40;;;;;;;1.00;0.73;;;29.30;55.50;;;;;;10373673;28;20175;-47
2022/08/04 04:30:07;;;;;;;2.00;0.77;;;29.20;55.60;;;;;;10393092;28;20087;-52
2022/08/04 04:35:27;;;;;;;1.38;0.52;;;29.10;55.70;;;;;;10390739;28;20132;-52
2022/08/04 04:40:44;;;;;;;1.88;0.77;;;29.10;55.90;;;;;;10390405;28;20212;-52
2022/08/04 04:45:53;;;;;;;1.60;0.80;;;29.00;56.50;;;;;;10381994;28;20125;-54
2022/08/04 04:51:05;;;;;;;5.60;0.85;;;29.00;56.00;;;;;;10401109;28;20474;-48
2022/08/04 04:56:22;;;;;;;2.85;0.60;;;29.00;56.00;;;;;;10396899;28;20076;-47
2022/08/04 05:02:01;;;;;;;7.65;1.23;;;28.90;56.10;;;;;;10391556;28;20049;-52
2022/08/04 05:07:21;;;;;;;8.63;1.60;;;29.00;56.20;;;;;;10394545;28;20059;-51
2022/08/04 05:12:37;;;;;;;1.58;0.70;;;28.90;56.30;;;;;;10397224;28;20075;-52
2022/08/04 05:17:43;;;;;;;2.78;0.70;;;28.90;56.40;;;;;;10396808;28;20497;-52
2022/08/04 05:22:51;;;;;;;2.75;0.60;;;28.90;56.50;;;;;;10398509;28;20042;-51
2022/08/04 05:28:01;;;;;;;4.20;1.05;;;28.90;56.60;;;;;;10405557;28;20070;-49
2022/08/04 05:33:08;;;;;;;2.40;0.60;;;28.90;56.70;;;;;;10392794;28;20092;-47
2022/08/04 05:38:12;;;;;;;5.95;0.90;;;28.90;56.80;;;;;;10389334;28;20128;-48
2022/08/04 05:43:16;;;;;;;3.20;1.48;;;28.80;56.90;;;;;;10381784;28;20137;-50
2022/08/04 05:48:18;;;;;;;3.08;0.93;;;28.80;56.90;;;;;;10399633;28;20525;-52
2022/08/04 05:53:22;;;;;;;2.13;0.80;;;28.80;56.90;;;;;;10399027;28;20037;-52
2022/08/04 05:58:26;;;;;;;3.30;1.40;;;28.80;57.00;;;;;;10395712;28;20053;-52
2022/08/04 06:03:30;;;;;;;5.57;1.08;;;28.80;57.10;;;;;;10408524;28;20049;-51
2022/08/04 06:08:32;;;;;;;3.92;0.98;;;28.80;57.20;;;;;;10393151;28;20074;-48
2022/08/04 06:13:41;;;;;;;2.42;0.95;;;28.90;57.00;;;;;;10402848;28;20067;-49
2022/08/04 06:18:45;;;;;;;2.03;0.93;;;28.90;57.00;;;;;;10392682;28;20053;-50
2022/08/04 06:23:49;;;;;;;2.80;0.88;;;29.00;56.80;;;;;;10402931;28;20045;-52
2022/08/04 06:28:54;;;;;;;6.13;1.30;;;29.00;56.70;;;;;;10387803;28;20298;-49
2022/08/04 06:33:56;;;;;;;10.48;1.98;;;28.80;57.90;;;;;;10387728;28;20084;-53
2022/08/04 06:38:59;;;;;;;6.63;1.60;;;28.00;59.00;;;;;;10388393;28;20135;-47
2022/08/04 06:44:07;;;;;;;4.15;1.25;;;27.50;60.40;;;;;;10372064;28;20136;-51
2022/08/04 06:49:09;;;;;;;8.13;1.40;;;27.90;58.70;;;;;;10391308;28;20048;-52
2022/08/04 06:54:11;;;;;;;6.13;1.42;;;28.60;56.80;;;;;;10396060;28;20560;-55
2022/08/04 06:59:17;;;;;;;4.40;1.73;;;27.70;58.30;;;;;;10395612;28;20148;-49
2022/08/04 07:04:19;;;;;;;4.78;1.10;;;27.60;58.80;;;;;;10388128;28;20057;-52
2022/08/04 07:09:21;;;;;;;5.18;1.60;;;28.20;56.90;;;;;;10385700;28;20445;-50
2022/08/04 07:14:25;;;;;;;5.85;1.60;;;27.80;57.90;;;;;;10386727;28;20065;-51
2022/08/04 07:19:27;;;;;;;6.95;2.10;;;27.00;60.10;;;;;;10387405;28;20205;-48
2022/08/04 07:24:30;;;;;;;5.20;1.50;;;26.60;61.10;;;;;;10383462;28;20368;-52
2022/08/04 07:29:35;;;;;;;4.53;1.80;;;26.60;60.80;;;;;;10385539;28;20030;-52
2022/08/04 07:34:38;;;;;;;3.05;1.77;;;26.70;60.30;;;;;;10395690;28;20050;-51
2022/08/04 07:39:40;;;;;;;6.05;2.03;;;26.50;60.60;;;;;;10392950;28;20683;-55
2022/08/04 07:44:45;;;;;;;4.38;1.80;;;26.60;60.70;;;;;;10387321;28;20542;-48
2022/08/04 07:49:47;;;;;;;9.93;2.22;;;26.70;60.30;;;;;;10391495;28;20044;-53
2022/08/04 07:54:50;;;;;;;4.00;1.30;;;26.70;60.20;;;;;;10385185;28;20127;-46
2022/08/04 07:59:53;;;;;;;3.35;1.30;;;27.50;58.30;;;;;;10383772;28;20045;-52
2022/08/04 08:04:55;;;;;;;5.65;1.30;;;28.00;57.60;;;;;;10385896;28;20088;-47
2022/08/04 08:09:57;;;;;;;2.08;0.95;;;28.10;56.90;;;;;;10395559;28;20103;-50
2022/08/04 08:15:01;;;;;;;3.65;1.10;;;28.20;56.80;;;;;;10401235;28;20429;-46
2022/08/04 08:20:03;;;;;;;3.63;0.95;;;28.20;56.80;;;;;;10395959;28;20100;-49
2022/08/04 08:25:06;;;;;;;2.20;0.93;;;28.30;56.70;;;;;;10382940;28;20120;-50
2022/08/04 08:30:11;;;;;;;3.08;0.88;;;28.40;56.70;;;;;;10393182;28;20129;-47
2022/08/04 08:35:12;;;;;;;2.50;1.17;;;28.40;56.60;;;;;;10385239;28;20076;-47
2022/08/04 08:40:27;;;;;;;3.42;1.48;;;28.50;56.50;;;;;;10398998;28;20073;-50
2022/08/04 08:46:19;;;;;;;3.08;1.10;;;28.50;56.40;;;;;;10408434;28;20038;-51
2022/08/04 08:51:30;;;;;;;;;;;28.40;56.50;;;;;;10404107;28;20100;-51
2022/08/04 08:56:40;;;;;;;4.77;1.40;;;28.50;56.40;;;;;;10398346;28;20320;-47
2022/08/04 09:02:00;;;;;;;3.63;1.27;;;28.50;56.30;;;;;;10409822;28;20049;-50
2022/08/04 09:07:19;;;;;;;2.38;1.00;;;28.60;56.10;;;;;;10408706;28;20144;-50
2022/08/04 09:12:29;;;;;;;2.45;0.85;;;28.60;56.30;;;;;;10404561;28;20120;-54
2022/08/04 09:17:41;;;;;;;7.65;1.48;;;28.60;56.30;;;;;;10406397;28;20140;-46
2022/08/04 09:22:50;;;;;;;3.85;1.20;;;28.50;56.30;;;;;;10397488;28;20053;-51
2022/08/04 09:27:53;;;;;;;5.28;2.20;;;28.60;56.60;;;;;;10419002;28;20046;-51
2022/08/04 09:33:10;;;;;;;4.95;1.10;;;28.50;56.50;;;;;;10395938;28;20363;-50
2022/08/04 09:38:19;;;;;;;2.08;0.90;;;28.60;56.50;;;;;;10391704;28;20132;-54
2022/08/04 09:43:32;;;;;;;2.67;0.73;;;28.60;56.40;;;;;;10397621;28;20066;-49
2022/08/04 09:48:44;;;;;;;4.72;0.95;;;28.60;56.30;;;;;;10394886;28;20107;-53
2022/08/04 09:53:55;;;;;;;1.75;0.70;;;28.60;56.30;;;;;;10396874;28;20069;-54
2022/08/04 09:59:08;;;;;;;1.83;1.02;;;28.60;56.30;;;;;;10395764;28;20094;-50
2022/08/04 10:04:16;;;;;;;2.40;1.10;;;28.70;56.30;;;;;;10395052;28;20050;-49
2022/08/04 10:09:42;;;;;;;2.45;0.98;;;28.70;56.00;;;;;;10387688;28;20073;-48
2022/08/04 10:14:52;;;;;;;2.38;0.90;;;28.80;56.10;;;;;;10404864;28;20128;-51
2022/08/04 10:20:08;;;;;;;1.42;0.73;;;28.80;56.00;;;;;;10406100;28;20085;-53
2022/08/04 10:25:24;;;;;;;1.67;0.70;;;28.80;55.80;;;;;;10409806;28;20049;-53
2022/08/04 10:30:30;;;;;;;4.20;1.02;;;28.90;55.60;;;;;;10413645;28;20037;-52
2022/08/04 10:35:37;;;;;;;1.77;0.80;;;29.00;55.10;;;;;;10402638;28;20074;-51
2022/08/04 10:40:44;;;;;;;4.15;0.93;;;29.10;55.80;;;;;;10397419;28;20631;-47
2022/08/04 10:45:50;;;;;;;1.27;0.65;;;29.20;55.10;;;;;;10399456;28;20046;-50
2022/08/04 10:51:02;;;;;;;2.63;1.10;;;29.30;54.90;;;;;;10392392;28;20107;-50
2022/08/04 10:56:12;;;;;;;4.68;0.95;;;29.30;54.40;;;;;;10396080;28;20057;-53
2022/08/04 11:01:23;;;;;;;3.13;1.15;;;29.40;54.30;;;;;;10402923;28;20132;-49
2022/08/04 11:06:27;;;;;;;2.33;0.97;;;29.40;54.20;;;;;;10403801;28;20180;-48
2022/08/04 11:11:33;;;;;;;5.78;1.05;;;29.50;54.20;;;;;;10387049;28;20045;-45
2022/08/04 11:16:39;;;;;;;3.25;0.85;;;29.50;53.90;;;;;;10394480;28;20128;-53
2022/08/04 11:21:49;;;;;;;5.20;0.93;;;29.60;53.90;;;;;;10398807;28;20084;-49
2022/08/04 11:26:56;;;;;;;3.75;0.77;;;29.60;53.90;;;;;;10395814;28;20128;-50
2022/08/04 11:32:02;;;;;;;1.73;0.95;;;29.70;54.00;;;;;;10390762;28;20140;-53
2022/08/04 11:37:11;;;;;;;5.57;1.50;;;29.70;54.00;;;;;;10393404;28;20069;-49
2022/08/04 11:42:19;;;;;;;1.80;0.80;;;29.80;53.80;;;;;;10400181;28;20131;-48
2022/08/04 11:47:29;;;;;;;1.92;0.95;;;29.80;53.90;;;;;;10400174;28;20079;-49
2022/08/04 11:52:33;;;;;;;3.65;1.33;;;29.80;54.00;;;;;;10387365;28;20038;-51
2022/08/04 11:57:35;;;;;;;5.78;1.70;;;29.90;53.50;;;;;;10386100;28;20042;-49
2022/08/04 12:03:11;;;;;;;1.77;0.82;;;29.90;53.10;;;;;;10392028;28;20049;-50
2022/08/04 12:08:29;;;;;;;2.75;0.90;;;29.90;53.30;;;;;;10393648;28;20050;-51
2022/08/04 12:13:39;;;;;;;5.60;1.50;;;29.90;53.20;;;;;;10385079;28;20136;-50
2022/08/04 12:18:49;;;;;;;6.47;1.40;;;30.00;53.40;;;;;;10388234;28;20115;-50
2022/08/04 12:24:00;;;;;;;11.83;2.10;;;30.00;53.50;;;;;;10395011;28;20041;-56
2022/08/04 12:29:05;;;;;;;8.77;2.65;;;29.90;53.80;;;;;;10391933;28;20142;-48
2022/08/04 12:34:18;;;;;;;4.88;1.75;;;30.00;53.40;;;;;;10388513;28;20050;-49
2022/08/04 12:39:24;;;;;;;5.55;1.80;;;30.00;53.60;;;;;;10394333;28;20409;-55
2022/08/04 12:44:33;;;;;;;6.15;2.60;;;30.10;53.50;;;;;;10393216;28;20104;-56
2022/08/04 12:49:37;;;;;;;11.43;3.65;;;30.10;53.70;;;;;;10394698;28;20131;-47
2022/08/04 12:54:42;;;;;;;8.02;3.05;;;30.10;53.60;;;;;;10395564;28;20137;-54
2022/08/04 12:59:45;;;;;;;10.68;3.53;;;30.10;53.80;;;;;;10388142;28;20045;-57
2022/08/04 13:04:48;;;;;;;11.50;3.47;;;30.20;53.60;;;;;;10393943;28;20053;-49
2022/08/04 13:09:52;;;;;;;12.55;4.78;;;30.20;54.00;;;;;;10387607;28;20064;-52
2022/08/04 13:15:05;;;;;;;12.55;3.70;;;30.30;54.00;;;;;;10387068;28;20074;-48
2022/08/04 13:20:08;;;;;;;12.45;4.03;;;30.30;53.80;;;;;;10392202;28;20056;-51
2022/08/04 13:25:11;;;;;;;13.18;3.63;;;30.40;53.80;;;;;;10389495;28;20045;-49
2022/08/04 13:30:17;;;;;;;9.40;2.22;;;30.40;54.30;;;;;;10386711;28;20450;-46
2022/08/04 13:35:19;;;;;;;6.03;2.28;;;30.40;53.40;;;;;;10396818;28;20385;-52
2022/08/04 13:40:25;;;;;;;10.25;2.45;;;30.50;53.80;;;;;;10394019;28;20504;-46
2022/08/04 13:45:27;;;;;;;5.90;2.05;;;30.60;53.80;;;;;;10399769;28;20046;-49
2022/08/04 13:50:32;;;;;;;5.80;2.97;;;30.60;53.60;;;;;;10399920;28;20379;-49
2022/08/04 13:55:36;;;;;;;4.72;1.58;;;30.70;53.60;;;;;;10401510;28;20536;-53
2022/08/04 14:00:45;;;;;;;8.35;1.65;;;30.70;53.80;;;;;;10397849;28;20041;-50
2022/08/04 14:06:08;;;;;;;4.03;1.40;;;30.70;54.10;;;;;;10395340;28;20037;-54
2022/08/04 14:11:11;;;;;;;5.20;1.58;;;30.80;54.20;;;;;;10391806;28;20050;-47
2022/08/04 14:16:19;;;;;;;4.00;1.30;;;30.90;54.30;;;;;;10399695;28;20072;-45
2022/08/04 14:21:21;;;;;;;6.43;1.90;;;30.90;54.50;;;;;;10398549;28;20143;-50
2022/08/04 14:26:27;;;;;;;2.75;1.20;;;30.90;54.30;;;;;;10399953;28;20614;-49
2022/08/04 14:31:29;;;;;;;5.10;1.30;;;30.90;54.30;;;;;;10399305;28;20084;-53
2022/08/04 14:36:40;;;;;;;5.63;1.83;;;31.00;54.10;;;;;;10399085;28;20118;-52
2022/08/04 14:41:48;;;;;;;7.45;1.63;;;31.10;54.00;;;;;;10398222;28;20049;-49
2022/08/04 14:46:51;;;;;;;2.42;0.88;;;31.10;54.50;;;;;;10397609;28;20125;-51
2022/08/04 14:51:56;;;;;;;5.25;1.63;;;31.10;54.40;;;;;;10398492;28;20053;-47
2022/08/04 14:57:03;;;;;;;3.33;1.08;;;31.10;54.10;;;;;;10398529;28;20677;-54
2022/08/04 15:02:05;;;;;;;5.32;1.48;;;31.20;54.50;;;;;;10391798;28;20045;-46
2022/08/04 15:07:08;;;;;;;5.47;1.10;;;31.20;54.10;;;;;;10397073;28;20170;-52
2022/08/04 15:12:11;;;;;;;5.38;1.33;;;31.20;54.30;;;;;;10396204;28;20065;-52
2022/08/04 15:17:13;;;;;;;3.40;1.10;;;31.30;54.40;;;;;;10396858;28;20103;-48
2022/08/04 15:22:15;;;;;;;5.38;1.35;;;31.20;55.00;;;;;;10396243;28;20041;-51
2022/08/04 15:27:19;;;;;;;2.80;1.23;;;31.20;53.90;;;;;;10396535;28;20466;-52
2022/08/04 15:32:21;;;;;;;6.60;1.38;;;31.30;53.80;;;;;;10399340;28;20504;-49
2022/08/04 15:37:27;;;;;;;4.75;1.27;;;31.30;53.60;;;;;;10397790;28;20074;-47
2022/08/04 15:42:38;;;;;;;2.38;1.00;;;31.30;53.70;;;;;;10388263;28;20115;-49
2022/08/04 15:47:40;;;;;;;3.25;0.95;;;31.30;54.00;;;;;;10395000;28;20042;-51
2022/08/04 15:53:03;;;;;;;1.02;0.82;;;31.40;53.50;;;;;;10392984;28;20045;-51
2022/08/04 15:58:08;;;;;;;2.20;0.77;;;31.40;53.50;;;;;;10397063;28;20065;-51
2022/08/04 16:03:41;;;;;;;4.68;1.33;;;31.40;54.00;;;;;;10396218;28;20091;-51
2022/08/04 16:08:58;;;;;;;2.70;1.20;;;31.40;53.30;;;;;;10393581;28;20486;-49
2022/08/04 16:14:11;;;;;;;4.30;0.77;;;31.40;53.50;;;;;;10384841;28;20466;-50
2022/08/04 16:19:22;;;;;;;1.02;0.60;;;31.40;53.60;;;;;;10390921;28;20169;-50
2022/08/04 16:24:30;;;;;;;1.77;0.65;;;31.50;53.50;;;;;;10387221;28;20614;-47
2022/08/04 16:29:38;;;;;;;1.63;0.55;;;31.40;52.80;;;;;;10388136;28;20033;-45
2022/08/04 16:34:42;;;;;;;1.60;0.80;;;31.40;53.10;;;;;;10386692;28;20175;-38
2022/08/04 16:39:44;;;;;;;4.60;1.20;;;31.50;53.10;;;;;;10392441;28;20050;-52
2022/08/04 16:44:59;;;;;;;3.40;0.70;;;31.50;52.40;;;;;;10388303;28;20493;-45
2022/08/04 16:50:02;;;;;;;1.98;0.80;;;31.50;53.00;;;;;;10387739;28;20056;-50
2022/08/04 16:55:05;;;;;;;7.97;1.20;;;31.50;52.80;;;;;;10387500;28;20097;-49
2022/08/04 17:00:10;;;;;;;1.23;0.63;;;31.50;53.20;;;;;;10395190;28;20064;-50
2022/08/04 17:05:21;;;;;;;3.10;0.88;;;31.50;52.90;;;;;;10399898;28;20539;-50
2022/08/04 17:10:30;;;;;;;;;;;31.60;53.40;;;;;;10395790;28;20041;-47
2022/08/04 17:15:33;;;;;;;1.75;0.90;;;31.60;53.30;;;;;;10401805;28;19916;-55
2022/08/04 17:20:40;;;;;;;3.40;1.83;;;31.50;53.00;;;;;;10399916;28;20041;-42
2022/08/04 17:25:52;;;;;;;3.45;1.10;;;31.50;53.30;;;;;;10402397;28;20057;-47
2022/08/04 17:30:56;;;;;;;5.63;1.50;;;31.00;49.00;;;;;;10400210;28;20425;-48
2022/08/04 17:36:00;;;;;;;27.25;9.77;;;30.50;49.70;;;;;;10389200;28;20111;-51
2022/08/04 17:41:04;;;;;;;13.27;4.53;;;30.30;50.00;;;;;;10398819;28;20077;-50
2022/08/04 17:46:22;;;;;;;17.85;6.80;;;30.10;50.50;;;;;;10384984;28;20471;-49
2022/08/04 17:51:32;;;;;;;30.40;12.73;;;30.10;50.70;;;;;;10390662;28;20119;-51
2022/08/04 17:56:38;;;;;;;15.20;6.07;;;30.10;51.70;;;;;;10395581;28;20076;-48
2022/08/04 18:01:43;;;;;;;9.40;4.43;;;30.10;51.30;;;;;;10399342;28;20045;-47
2022/08/04 18:06:50;;;;;;;7.05;2.00;;;30.30;52.20;;;;;;10389995;28;20538;-53
2022/08/04 18:11:53;;;;;;;4.85;2.40;;;30.60;52.30;;;;;;10398731;28;20128;-50
2022/08/04 18:16:56;;;;;;;11.27;3.78;;;30.80;52.40;;;;;;10395170;28;20120;-51
2022/08/04 18:21:58;;;;;;;6.03;2.65;;;30.80;51.90;;;;;;10391509;28;20057;-48
2022/08/04 18:27:00;;;;;;;7.07;2.40;;;30.90;52.10;;;;;;10397455;28;20848;-50
2022/08/04 18:32:04;;;;;;;6.35;2.70;;;30.90;52.40;;;;;;10398197;28;21086;-51
2022/08/04 18:37:06;;;;;;;5.05;2.30;;;30.90;52.50;;;;;;10398425;28;20493;-53
2022/08/04 18:42:08;;;;;;;5.03;2.17;;;31.00;52.40;;;;;;10394090;28;20061;-52
2022/08/04 18:47:12;;;;;;;3.63;1.95;;;31.00;52.60;;;;;;10396485;28;20456;-54
2022/08/04 18:52:14;;;;;;;6.25;1.88;;;31.00;52.40;;;;;;10396801;28;20438;-47
2022/08/04 18:57:18;;;;;;;5.50;2.15;;;31.00;52.50;;;;;;10398307;28;20069;-51
2022/08/04 19:02:21;;;;;;;2.92;1.45;;;31.00;52.40;;;;;;10396108;28;20488;-53
2022/08/04 19:07:23;;;;;;;4.60;1.52;;;30.90;52.40;;;;;;10391059;28;20478;-52
2022/08/04 19:12:25;;;;;;;3.30;1.30;;;30.90;52.30;;;;;;10395737;28;20111;-53
2022/08/04 19:17:30;;;;;;;3.83;1.50;;;30.80;52.20;;;;;;10390567;28;20513;-53
2022/08/04 19:22:31;;;;;;;5.35;1.50;;;30.70;51.70;;;;;;10384763;28;20081;-52
2022/08/04 19:27:33;;;;;;;6.25;1.90;;;30.60;51.60;;;;;;10395047;28;20076;-48
2022/08/04 19:32:36;;;;;;;8.27;2.30;;;30.60;51.40;;;;;;10388652;28;20132;-45
2022/08/04 19:37:38;;;;;;;9.43;2.08;;;30.50;51.40;;;;;;10384375;28;20045;-52
2022/08/04 19:42:41;;;;;;;13.90;2.00;;;30.50;52.00;;;;;;10394379;28;20061;-52
2022/08/04 19:47:45;;;;;;;5.32;1.48;;;30.40;51.30;;;;;;10393911;28;20061;-53
2022/08/04 19:52:47;;;;;;;5.00;1.23;;;30.40;51.40;;;;;;10393574;28;20518;-49
2022/08/04 19:57:49;;;;;;;5.45;1.10;;;30.40;52.00;;;;;;10394805;28;20376;-52
2022/08/04 20:02:52;;;;;;;4.97;1.10;;;30.40;51.40;;;;;;10390117;28;20457;-50
2022/08/04 20:07:54;;;;;;;3.88;0.80;;;30.30;51.40;;;;;;10392636;28;20049;-50
2022/08/04 20:12:56;;;;;;;6.22;1.35;;;30.30;51.50;;;;;;10394382;28;20098;-55
2022/08/04 20:17:59;;;;;;;5.00;1.50;;;30.30;51.50;;;;;;10390920;28;20067;-49
2022/08/04 20:23:01;;;;;;;7.63;1.00;;;30.30;51.50;;;;;;10390598;28;20048;-51
2022/08/04 20:28:03;;;;;;;3.78;1.13;;;30.30;51.50;;;;;;10391772;28;20122;-50
2022/08/04 20:33:06;;;;;;;6.65;1.52;;;30.30;51.50;;;;;;10394976;28;20453;-52
2022/08/04 20:38:08;;;;;;;3.85;1.42;;;30.20;51.40;;;;;;10390121;28;20038;-52
2022/08/04 20:43:10;;;;;;;2.95;1.13;;;30.20;51.30;;;;;;10387760;28;20093;-44
2022/08/04 20:48:14;;;;;;;2.25;1.00;;;30.20;51.40;;;;;;10394674;28;20112;-49
2022/08/04 20:53:16;;;;;;;3.45;0.90;;;30.10;51.30;;;;;;10392872;28;20088;-52
2022/08/04 20:58:18;;;;;;;2.65;0.98;;;30.10;51.30;;;;;;10394164;28;20442;-50
2022/08/04 21:03:21;;;;;;;3.92;1.10;;;30.20;51.40;;;;;;10391362;28;20136;-56
2022/08/04 21:08:23;;;;;;;6.22;1.10;;;30.30;51.50;;;;;;10395773;28;20504;-48
2022/08/04 21:13:25;;;;;;;2.92;1.08;;;30.20;51.50;;;;;;10396762;28;20076;-51
2022/08/04 21:18:28;;;;;;;2.88;0.88;;;30.30;51.60;;;;;;10395863;28;20060;-51
2022/08/04 21:23:30;;;;;;;2.35;0.80;;;30.20;51.60;;;;;;10391758;28;20404;-53
2022/08/04 21:28:33;;;;;;;5.25;1.08;;;30.20;51.70;;;;;;10399319;28;21138;-56
2022/08/04 21:33:36;;;;;;;1.95;1.02;;;30.20;51.70;;;;;;10396605;28;20437;-45
2022/08/04 21:38:39;;;;;;;2.10;0.73;;;30.20;51.70;;;;;;10393232;28;20045;-53
2022/08/04 21:43:41;;;;;;;2.45;0.90;;;30.10;51.70;;;;;;10383002;28;21013;-46
2022/08/04 21:48:44;;;;;;;4.15;0.80;;;30.10;51.70;;;;;;10384371;28;20069;-52
2022/08/04 21:53:46;;;;;;;1.90;0.80;;;30.10;51.80;;;;;;10394401;28;20060;-49
2022/08/04 21:58:47;;;;;;;2.85;0.77;;;30.10;51.80;;;;;;10397262;28;20049;-53
2022/08/04 22:03:51;;;;;;;2.67;0.90;;;30.00;51.70;;;;;;10396936;28;20132;-53
2022/08/04 22:08:52;;;;;;;1.92;0.70;;;30.00;51.70;;;;;;10403371;28;20055;-47
2022/08/04 22:13:57;;;;;;;2.25;0.80;;;30.00;51.80;;;;;;10398746;28;20057;-53
2022/08/04 22:19:01;;;;;;;2.10;0.70;;;30.00;51.70;;;;;;10402551;28;20395;-50
2022/08/04 22:24:03;;;;;;;1.23;0.60;;;30.00;51.80;;;;;;10400202;28;20745;-50
2022/08/04 22:29:05;;;;;;;1.25;0.75;;;30.00;51.60;;;;;;10401617;28;20108;-47
2022/08/04 22:34:08;;;;;;;2.05;0.60;;;29.90;52.30;;;;;;10397788;28;20037;-53
2022/08/04 22:39:10;;;;;;;1.45;0.70;;;29.90;51.70;;;;;;10400317;28;20466;-52
2022/08/04 22:44:16;;;;;;;2.60;1.23;;;29.90;51.70;;;;;;10399782;28;20059;-50
2022/08/04 22:49:19;;;;;;;2.33;0.90;;;29.90;51.90;;;;;;10402989;28;20041;-49
2022/08/04 22:54:21;;;;;;;1.25;0.70;;;29.80;51.70;;;;;;10402388;28;20128;-49
2022/08/04 22:59:23;;;;;;;1.50;0.88;;;29.80;51.80;;;;;;10397366;28;20379;-50
2022/08/04 23:04:27;;;;;;;1.30;0.63;;;29.80;51.80;;;;;;10396583;28;20136;-49
2022/08/04 23:09:29;;;;;;;1.15;0.52;;;29.70;51.80;;;;;;10401338;28;20136;-50
2022/08/04 23:14:32;;;;;;;2.90;0.68;;;29.70;51.80;;;;;;10401355;28;20061;-51
2022/08/04 23:19:35;;;;;;;2.95;1.02;;;29.70;51.80;;;;;;10400508;28;20085;-53
2022/08/04 23:24:37;;;;;;;0.70;0.50;;;29.70;51.90;;;;;;10398156;28;20130;-49
2022/08/04 23:29:39;;;;;;;1.40;0.70;;;29.70;51.90;;;;;;10398663;28;20191;-47
2022/08/04 23:34:42;;;;;;;1.90;0.57;;;29.60;51.90;;;;;;10399518;28;20147;-51
2022/08/04 23:39:44;;;;;;;2.90;0.93;;;29.60;51.90;;;;;;10396774;28;20056;-53
2022/08/04 23:44:45;;;;;;;2.05;0.55;;;29.60;51.90;;;;;;10397656;28;20045;-50
2022/08/04 23:49:49;;;;;;;1.52;0.55;;;29.60;52.00;;;;;;10398797;28;20080;-52
2022/08/04 23:54:50;;;;;;;0.70;0.50;;;29.50;51.80;;;;;;10398400;28;20045;-50
2022/08/04 23:59:52;;;;;;;1.00;0.50;;;29.50;51.90;;;;;;10399645;28;20041;-52
